Time;durP1;ratioP1;P1;durP2;ratioP2;P2;SDS_P1;SDS_P2;PMS_P1;PMS_P2;Temp;Humidity;BMP_temperature;BMP_pressure;BME280_temperature;BME280_humidity;BME280_pressure;Samples;Min_cycle;Max_cycle;Signal;HPM_P1;HPM_P2
2023/05/11 00:00:51;;;;;;;3.67;1.70;;;;;;;10.50;100.00;100598.41;5072723;28;20203;-76
2023/05/11 00:03:18;;;;;;;3.05;1.40;;;;;;;10.62;100.00;100593.50;5072027;28;20293;-76
2023/05/11 00:05:48;;;;;;;3.75;1.80;;;;;;;10.78;100.00;100595.59;5020807;28;20198;-76
2023/05/11 00:08:15;;;;;;;3.88;1.70;;;;;;;10.64;100.00;100594.41;5072437;28;20222;-76
2023/05/11 00:10:47;;;;;;;2.13;1.30;;;;;;;10.70;100.00;100591.97;5072170;28;20199;-76
2023/05/11 00:13:14;;;;;;;2.75;1.55;;;;;;;10.80;100.00;100606.91;5072286;28;20237;-76
2023/05/11 00:15:41;;;;;;;3.03;1.58;;;;;;;10.81;100.00;100609.50;5072122;28;20202;-76
2023/05/11 00:18:08;;;;;;;4.82;1.90;;;;;;;10.74;100.00;100601.56;5071984;28;20195;-76
2023/05/11 00:20:35;;;;;;;3.67;1.63;;;;;;;10.79;100.00;100611.19;5071849;28;20256;-76
2023/05/11 00:23:01;;;;;;;4.05;1.73;;;;;;;10.75;100.00;100608.50;5072005;28;20699;-76
2023/05/11 00:25:28;;;;;;;2.90;1.48;;;;;;;10.64;100.00;100605.66;5020411;28;20198;-76
2023/05/11 00:27:56;;;;;;;4.00;1.90;;;;;;;10.70;100.00;100607.53;5071818;28;20637;-76
2023/05/11 00:30:23;;;;;;;4.68;1.80;;;;;;;10.59;100.00;100593.44;5071564;28;20207;-76
2023/05/11 00:32:51;;;;;;;3.58;1.70;;;;;;;10.50;100.00;100603.59;5020294;28;20191;-76
2023/05/11 00:35:18;;;;;;;4.22;1.73;;;;;;;10.39;100.00;100598.16;5072091;28;20297;-76
2023/05/11 00:37:44;;;;;;;5.20;1.90;;;;;;;10.28;100.00;100600.47;5071918;28;20194;-76
2023/05/11 00:40:11;;;;;;;3.42;1.50;;;;;;;10.22;100.00;100589.97;5035863;28;20234;-76
2023/05/11 00:42:38;;;;;;;3.67;1.55;;;;;;;10.20;100.00;100596.81;5071483;28;20253;-75
2023/05/11 00:45:07;;;;;;;4.63;1.80;;;;;;;10.24;100.00;100593.47;5020356;28;20202;-77
2023/05/11 00:47:34;;;;;;;3.35;1.50;;;;;;;10.17;100.00;100591.56;5071193;28;20260;-76
2023/05/11 00:50:01;;;;;;;4.70;1.75;;;;;;;10.13;100.00;100597.47;5071185;28;20199;-77
2023/05/11 00:52:28;;;;;;;3.55;1.55;;;;;;;9.98;100.00;100584.16;5071270;28;20203;-76
2023/05/11 00:54:55;;;;;;;4.03;1.60;;;;;;;9.98;100.00;100591.94;5035654;28;20218;-76
2023/05/11 00:57:22;;;;;;;3.47;1.55;;;;;;;9.96;100.00;100597.06;5055170;28;20191;-76
2023/05/11 00:59:49;;;;;;;4.05;1.63;;;;;;;9.93;100.00;100585.75;5071344;28;20206;-77
2023/05/11 01:02:18;;;;;;;3.97;1.58;;;;;;;9.99;100.00;100591.06;5071265;28;20280;-77
2023/05/11 01:04:45;;;;;;;3.25;1.52;;;;;;;9.74;100.00;100599.91;5071627;28;20210;-76
2023/05/11 01:07:18;;;;;;;4.07;1.70;;;;;;;9.75;100.00;100598.22;5070908;28;20206;-77
2023/05/11 01:09:55;;;;;;;2.97;1.45;;;;;;;9.41;100.00;100540.38;5070738;28;20202;-77
2023/05/11 01:12:30;;;;;;;3.00;1.55;;;;;;;9.64;100.00;100610.00;5035798;28;20225;-77
2023/05/11 01:15:03;;;;;;;2.88;1.50;;;;;;;9.66;100.00;100610.94;5071408;28;20233;-77
2023/05/11 01:17:38;;;;;;;3.65;1.50;;;;;;;9.63;100.00;100603.09;5071220;28;20290;-77
2023/05/11 01:20:27;;;;;;;3.55;1.63;;;;;;;9.74;100.00;100614.56;5071354;28;20213;-77
2023/05/11 01:23:20;;;;;;;3.55;1.52;;;;;;;9.80;100.00;100614.75;5028383;28;20200;-76
2023/05/11 01:26:10;;;;;;;4.03;1.60;;;;;;;9.85;100.00;100615.75;4969949;28;20351;-76
2023/05/11 01:28:57;;;;;;;3.30;1.55;;;;;;;9.82;100.00;100610.47;4969963;28;20288;-77
2023/05/11 01:31:30;;;;;;;4.32;1.80;;;;;;;9.66;100.00;100598.88;4893597;29;20220;-77
2023/05/11 01:34:01;;;;;;;4.50;1.80;;;;;;;9.41;100.00;100571.44;4893142;29;20239;-76
2023/05/11 01:36:32;;;;;;;2.92;1.48;;;;;;;9.65;100.00;100604.88;4893744;29;20208;-77
2023/05/11 01:39:04;;;;;;;3.38;1.58;;;;;;;9.64;100.00;100603.09;4871911;29;20287;-76
2023/05/11 01:41:34;;;;;;;2.50;1.40;;;;;;;9.65;100.00;100603.97;4915866;29;20209;-76
2023/05/11 01:44:06;;;;;;;3.05;1.40;;;;;;;9.73;100.00;100603.38;4931519;29;20235;-76
2023/05/11 01:46:34;;;;;;;2.67;1.33;;;;;;;9.68;100.00;100598.88;4931847;29;20208;-76
2023/05/11 01:49:06;;;;;;;2.63;1.48;;;;;;;9.68;100.00;100611.81;4931546;29;20700;-76
2023/05/11 01:51:36;;;;;;;1.55;1.15;;;;;;;9.57;100.00;100593.41;4931799;29;20242;-76
2023/05/11 01:54:07;;;;;;;3.88;1.73;;;;;;;9.65;100.00;100611.75;4951816;28;20332;-76
2023/05/11 01:56:36;;;;;;;3.60;1.60;;;;;;;9.51;100.00;100618.25;4970017;28;20612;-77
2023/05/11 01:59:03;;;;;;;3.40;1.70;;;;;;;9.48;100.00;100610.41;4969901;28;20639;-76
2023/05/11 02:01:31;;;;;;;3.03;1.40;;;;;;;9.52;100.00;100612.25;4969496;28;20289;-77
2023/05/11 02:04:02;;;;;;;2.47;1.40;;;;;;;9.60;100.00;100610.75;4986626;28;20244;-77
2023/05/11 02:06:31;;;;;;;2.38;1.48;;;;;;;9.49;100.00;100604.41;5005657;28;20259;-77
2023/05/11 02:09:00;;;;;;;2.40;1.50;;;;;;;9.50;100.00;100600.97;5063951;28;20231;-76
2023/05/11 02:11:29;;;;;;;1.20;1.05;;;;;;;9.51;100.00;100602.72;5070674;28;20741;-76
2023/05/11 02:13:58;;;;;;;2.83;1.52;;;;;;;9.47;100.00;100599.19;5070688;28;20682;-77
2023/05/11 02:16:26;;;;;;;2.65;1.50;;;;;;;9.44;100.00;100605.16;5070918;28;20226;-77
2023/05/11 02:18:54;;;;;;;2.97;1.60;;;;;;;9.38;100.00;100589.44;5070344;28;20199;-77
2023/05/11 02:21:24;;;;;;;2.47;1.42;;;;;;;9.56;100.00;100608.94;5019647;28;20290;-76
2023/05/11 02:23:52;;;;;;;3.65;1.75;;;;;;;9.46;100.00;100587.94;5074196;28;20207;-76
2023/05/11 02:26:18;;;;;;;3.33;1.70;;;;;;;9.38;100.00;100589.44;5073969;28;20215;-76
2023/05/11 02:28:46;;;;;;;2.78;1.48;;;;;;;9.40;100.00;100607.63;5074143;28;20202;-76
2023/05/11 02:31:19;;;;;;;3.85;2.38;;;;;;;9.45;100.00;100606.03;5074237;28;20202;-76
2023/05/11 02:33:49;;;;;;;2.63;1.45;;;;;;;9.16;100.00;100607.81;5023237;28;20231;-77
2023/05/11 02:36:20;;;;;;;2.85;1.65;;;;;;;9.08;100.00;100614.47;5074172;28;20211;-77
2023/05/11 02:38:53;;;;;;;2.42;1.40;;;;;;;9.00;100.00;100590.06;5074052;28;20250;-77
2023/05/11 02:41:25;;;;;;;3.33;1.70;;;;;;;8.82;100.00;100594.69;5073958;28;20210;-76
2023/05/11 02:43:56;;;;;;;3.42;1.67;;;;;;;8.86;100.00;100606.88;5074201;28;20232;-77
2023/05/11 02:46:29;;;;;;;2.05;1.50;;;;;;;9.10;100.00;100617.06;5073339;28;20203;-77
2023/05/11 02:48:59;;;;;;;2.92;1.55;;;;;;;9.16;100.00;100618.16;5047205;28;20289;-77
2023/05/11 02:51:32;;;;;;;2.25;1.40;;;;;;;9.19;100.00;100613.06;5039276;28;20570;-76
2023/05/11 02:54:01;;;;;;;3.47;1.65;;;;;;;9.17;100.00;100614.72;5073876;28;20222;-76
2023/05/11 02:56:29;;;;;;;2.60;1.40;;;;;;;9.15;100.00;100612.91;5073646;28;20258;-76
2023/05/11 02:58:56;;;;;;;3.28;1.50;;;;;;;9.11;100.00;100624.88;5073602;28;20194;-77
2023/05/11 03:01:24;;;;;;;3.65;1.63;;;;;;;9.16;100.00;100615.56;5071535;28;20202;-76
2023/05/11 03:03:50;;;;;;;3.15;1.50;;;;;;;9.13;100.00;100620.63;5071641;28;20194;-76
2023/05/11 03:06:17;;;;;;;2.85;1.48;;;;;;;9.16;100.00;100630.22;5074065;28;20202;-76
2023/05/11 03:08:44;;;;;;;2.88;1.67;;;;;;;9.09;100.00;100611.06;5072981;28;20640;-76
2023/05/11 03:11:13;;;;;;;3.90;1.75;;;;;;;9.22;100.00;100625.19;5073358;28;20195;-76
2023/05/11 03:13:42;;;;;;;2.70;1.60;;;;;;;9.10;100.00;100617.06;5072912;28;20199;-76
2023/05/11 03:16:11;;;;;;;3.20;1.47;;;;;;;9.09;100.00;100621.41;5073323;28;20206;-75
2023/05/11 03:18:39;;;;;;;4.15;1.88;;;;;;;9.13;100.00;100625.78;5068998;28;20203;-76
2023/05/11 03:21:07;;;;;;;3.83;1.70;;;;;;;9.14;100.00;100624.97;5037763;28;20198;-76
2023/05/11 03:23:35;;;;;;;2.67;1.50;;;;;;;8.99;100.00;100598.66;5072864;28;20198;-76
2023/05/11 03:26:03;;;;;;;3.53;1.80;;;;;;;9.09;100.00;100611.06;5073400;28;20229;-75
2023/05/11 03:28:32;;;;;;;3.72;1.63;;;;;;;9.31;100.00;100638.44;5072841;28;20257;-75
2023/05/11 03:30:59;;;;;;;4.35;1.67;;;;;;;9.43;100.00;100634.47;5072928;28;20257;-76
2023/05/11 03:33:26;;;;;;;3.35;1.50;;;;;;;9.84;100.00;100616.59;5072707;28;20202;-78
2023/05/11 03:35:54;;;;;;;4.78;1.83;;;;;;;10.49;100.00;100630.38;5073016;28;20229;-75
2023/05/11 03:38:23;;;;;;;4.03;1.88;;;;;;;10.61;100.00;100558.91;5072881;28;20206;-75
2023/05/11 03:40:52;;;;;;;3.85;2.17;;;;;;;11.90;97.75;100647.28;5023227;28;20253;-75
2023/05/11 03:43:21;;;;;;;2.72;1.50;;;;;;;12.11;88.08;100634.69;5070270;28;20248;-75
2023/05/11 03:45:51;;;;;;;2.88;1.48;;;;;;;12.69;84.22;100653.84;5072325;28;20652;-78
2023/05/11 03:48:19;;;;;;;4.13;1.73;;;;;;;12.58;79.87;100596.44;5072446;28;20291;-78
2023/05/11 03:50:47;;;;;;;3.05;1.60;;;;;;;13.29;77.33;100657.34;5072565;28;20230;-77
2023/05/11 03:53:14;;;;;;;2.53;1.40;;;;;;;13.76;73.35;100662.28;5072466;28;20264;-75
2023/05/11 03:55:41;;;;;;;2.63;1.48;;;;;;;13.94;89.91;100649.44;5072260;28;20260;-78
2023/05/11 03:58:09;;;;;;;2.95;1.58;;;;;;;13.48;71.86;100608.97;5072428;28;20195;-77
2023/05/11 04:00:38;;;;;;;2.25;1.42;;;;;;;13.71;71.56;100663.94;5072526;28;20657;-75
2023/05/11 04:03:07;;;;;;;3.88;1.90;;;;;;;14.09;78.06;100657.41;5072194;28;20553;-77
2023/05/11 04:05:34;;;;;;;1.95;1.20;;;;;;;14.22;83.96;100667.13;5072512;28;20206;-78
2023/05/11 04:08:02;;;;;;;2.58;1.48;;;;;;;14.06;85.34;100657.38;5072164;28;20198;-77
2023/05/11 04:10:29;;;;;;;1.13;1.02;;;;;;;14.53;82.44;100665.69;5045059;28;20638;-77
2023/05/11 04:12:56;;;;;;;1.98;1.23;;;;;;;14.89;93.38;100670.31;5072145;28;20205;-80
2023/05/11 04:15:22;;;;;;;2.33;1.30;;;;;;;14.88;85.86;100671.16;5071960;28;20218;-77
2023/05/11 04:17:49;;;;;;;5.07;1.65;;;;;;;14.45;83.67;100676.94;5071784;28;20596;-76
2023/05/11 04:20:17;;;;;;;5.13;1.98;;;;;;;14.02;87.56;100667.78;5072220;28;20210;-77
2023/05/11 04:22:44;;;;;;;5.47;1.65;;;;;;;13.95;89.12;100679.84;5020107;28;20190;-76
2023/05/11 04:25:12;;;;;;;4.00;1.42;;;;;;;14.69;100.00;100671.91;5037383;28;20206;-74
2023/05/11 04:27:39;;;;;;;2.90;1.30;;;;;;;15.04;83.57;100664.31;5034459;28;20211;-78
2023/05/11 04:30:07;;;;;;;4.88;1.88;;;;;;;15.40;80.90;100685.44;5058702;28;20571;-76
2023/05/11 04:32:34;;;;;;;4.93;1.73;;;;;;;15.70;79.00;100672.50;5058408;28;20226;-80
2023/05/11 04:35:01;;;;;;;4.57;1.70;;;;;;;15.34;78.80;100643.56;5062970;28;20226;-76
2023/05/11 04:37:29;;;;;;;4.47;1.70;;;;;;;15.63;78.61;100672.47;5063386;28;20711;-77
2023/05/11 04:39:56;;;;;;;5.00;1.73;;;;;;;15.90;74.59;100672.59;5058628;28;20235;-77
2023/05/11 04:42:23;;;;;;;4.95;1.63;;;;;;;16.57;68.34;100678.81;5055934;28;20210;-78
2023/05/11 04:44:53;;;;;;;5.13;1.67;;;;;;;16.41;72.66;100670.94;5032123;28;20207;-77
2023/05/11 04:47:20;;;;;;;2.35;1.25;;;;;;;17.15;69.21;100670.91;5051566;28;20264;-76
2023/05/11 04:49:46;;;;;;;3.17;1.50;;;;;;;17.64;65.99;100659.41;5064285;28;20222;-77
2023/05/11 04:52:13;;;;;;;2.50;1.42;;;;;;;16.63;58.58;100677.94;5069501;28;20228;-77
2023/05/11 04:54:41;;;;;;;4.70;2.35;;;;;;;16.26;61.19;100672.66;5070971;28;20234;-77
2023/05/11 04:57:08;;;;;;;3.63;1.48;;;;;;;16.78;61.86;100678.81;5019306;28;20203;-77
2023/05/11 04:59:35;;;;;;;3.00;1.38;;;;;;;17.47;58.86;100690.03;5031724;28;20210;-78
2023/05/11 05:02:01;;;;;;;4.00;1.98;;;;;;;17.64;56.96;100690.88;5070569;28;20289;-77
2023/05/11 05:04:28;;;;;;;1.85;1.30;;;;;;;17.22;57.50;100694.47;5019302;28;20221;-81
2023/05/11 05:06:55;;;;;;;3.28;2.20;;;;;;;17.45;59.62;100694.41;5056252;28;20203;-72
2023/05/11 05:09:22;;;;;;;3.05;1.55;;;;;;;17.73;59.68;100684.72;5016411;28;20615;-74
2023/05/11 05:11:50;;;;;;;2.85;1.27;;;;;;;17.60;59.02;100683.03;5056447;28;20203;-73
2023/05/11 05:14:17;;;;;;;4.18;1.70;;;;;;;17.29;60.59;100685.72;5064618;28;20199;-74
2023/05/11 05:16:43;;;;;;;2.97;1.38;;;;;;;16.80;61.36;100684.91;5057848;28;20207;-73
2023/05/11 05:19:11;;;;;;;2.80;1.50;;;;;;;17.08;62.11;100688.41;5066308;28;20212;-73
2023/05/11 05:21:39;;;;;;;1.20;1.00;;;;;;;16.31;64.59;100667.41;5059210;28;20210;-76
2023/05/11 05:24:09;;;;;;;5.35;2.78;;;;;;;15.85;67.62;100683.03;5010931;28;20203;-76
2023/05/11 05:26:36;;;;;;;2.75;1.45;;;;;;;16.07;67.75;100686.56;5066728;28;20606;-76
2023/05/11 05:29:05;;;;;;;3.08;1.45;;;;;;;15.73;67.74;100659.44;5070339;28;20684;-78
2023/05/11 05:31:31;;;;;;;3.17;1.52;;;;;;;16.05;66.82;100677.84;5056530;28;20237;-73
2023/05/11 05:33:58;;;;;;;3.08;1.60;;;;;;;14.99;71.33;100686.91;5070922;28;20194;-77
2023/05/11 05:36:25;;;;;;;3.00;1.45;;;;;;;14.81;73.36;100693.75;5055508;28;20231;-77
2023/05/11 05:38:52;;;;;;;3.10;1.50;;;;;;;14.59;74.79;100690.97;5020741;28;20226;-75
2023/05/11 05:41:19;;;;;;;4.38;1.63;;;;;;;14.75;76.10;100695.44;5073283;28;20207;-77
2023/05/11 05:43:46;;;;;;;1.95;1.27;;;;;;;14.99;73.91;100643.38;5071098;28;20289;-73
2023/05/11 05:46:14;;;;;;;3.40;1.58;;;;;;;15.25;71.91;100693.16;5073494;28;20207;-79
2023/05/11 05:48:41;;;;;;;1.85;1.55;;;;;;;15.48;72.79;100695.91;5082912;28;20289;-78
2023/05/11 05:51:08;;;;;;;3.67;1.60;;;;;;;15.19;73.71;100696.63;5070800;28;20287;-72
2023/05/11 05:53:35;;;;;;;3.22;1.65;;;;;;;15.20;74.83;100695.75;5070247;28;20203;-71
2023/05/11 05:56:01;;;;;;;4.68;1.92;;;;;;;15.06;70.81;100700.00;5037532;28;20245;-74
2023/05/11 05:58:28;;;;;;;3.03;1.50;;;;;;;15.22;67.73;100707.09;5088835;28;20194;-76
2023/05/11 06:00:55;;;;;;;3.40;1.63;;;;;;;15.33;64.94;100708.03;5075107;28;20198;-76
2023/05/11 06:03:23;;;;;;;4.85;1.90;;;;;;;15.19;65.16;100701.88;5059300;28;20197;-77
2023/05/11 06:05:50;;;;;;;2.50;1.50;;;;;;;15.02;65.94;100698.25;5094818;28;20209;-77
2023/05/11 06:08:17;;;;;;;3.42;1.52;;;;;;;14.69;70.46;100698.00;5080616;28;20201;-78
2023/05/11 06:10:44;;;;;;;1.58;1.20;;;;;;;14.94;73.44;100699.06;5087118;28;20675;-77
2023/05/11 06:13:10;;;;;;;3.97;1.70;;;;;;;15.16;73.15;100693.97;5089068;28;20202;-78
2023/05/11 06:15:37;;;;;;;1.58;1.23;;;;;;;14.93;73.55;100698.19;5074150;28;20225;-77
2023/05/11 06:18:04;;;;;;;2.58;1.65;;;;;;;14.69;67.63;100678.00;5086713;28;20698;-77
2023/05/11 06:20:32;;;;;;;1.70;1.50;;;;;;;14.70;64.92;100694.50;5089852;28;20623;-81
2023/05/11 06:22:59;;;;;;;2.30;1.50;;;;;;;14.81;64.10;100698.09;5084965;28;20209;-77
2023/05/11 06:25:26;;;;;;;2.50;1.50;;;;;;;15.05;62.17;100702.63;5077156;28;20209;-76
2023/05/11 06:27:53;;;;;;;2.38;1.58;;;;;;;14.52;62.37;100621.31;5083186;28;20237;-74
2023/05/11 06:30:20;;;;;;;1.92;1.40;;;;;;;15.19;61.71;100699.25;5041686;28;20225;-74
2023/05/11 06:32:47;;;;;;;1.63;1.30;;;;;;;15.26;61.27;100701.03;5094514;28;20263;-76
2023/05/11 06:35:13;;;;;;;2.25;1.45;;;;;;;15.27;59.32;100700.16;5094223;28;20225;-77
2023/05/11 06:37:41;;;;;;;1.45;1.30;;;;;;;15.14;59.03;100703.56;5088796;28;20195;-78
2023/05/11 06:40:09;;;;;;;3.17;1.80;;;;;;;15.41;59.67;100707.22;5042203;28;20245;-78
2023/05/11 06:42:36;;;;;;;2.30;1.40;;;;;;;15.58;59.11;100705.59;5088621;28;20206;-76
2023/05/11 06:45:04;;;;;;;2.40;1.45;;;;;;;15.88;60.56;100700.47;5087443;28;20203;-77
2023/05/11 06:47:30;;;;;;;2.90;1.63;;;;;;;15.58;59.13;100706.47;5022521;28;20195;-77
2023/05/11 06:49:57;;;;;;;3.25;1.60;;;;;;;15.32;58.53;100695.84;5093317;28;20205;-78
2023/05/11 06:52:24;;;;;;;2.22;1.30;;;;;;;15.06;59.59;100704.34;5055156;28;20593;-76
2023/05/11 06:54:52;;;;;;;3.05;1.55;;;;;;;15.39;58.39;100708.06;5052342;28;20202;-78
2023/05/11 06:57:19;;;;;;;2.92;1.52;;;;;;;15.44;57.31;100712.44;5073459;28;20214;-77
2023/05/11 06:59:46;;;;;;;2.17;1.40;;;;;;;15.45;57.55;100708.94;5073505;28;20214;-76
2023/05/11 07:02:12;;;;;;;3.65;1.70;;;;;;;15.53;58.00;100689.88;5081476;28;20338;-77
2023/05/11 07:04:39;;;;;;;2.10;1.30;;;;;;;15.67;58.10;100684.69;5080118;28;20208;-75
2023/05/11 07:07:06;;;;;;;2.55;1.42;;;;;;;16.26;59.32;100704.06;5093883;28;20361;-77
2023/05/11 07:09:33;;;;;;;3.17;1.55;;;;;;;16.44;55.24;100702.34;5094519;28;20213;-77
2023/05/11 07:12:01;;;;;;;3.15;1.67;;;;;;;16.19;55.04;100711.91;5089798;28;20213;-77
2023/05/11 07:14:28;;;;;;;3.22;1.63;;;;;;;16.11;55.39;100705.78;5085523;28;20202;-77
2023/05/11 07:16:55;;;;;;;2.53;1.45;;;;;;;15.97;55.97;100708.34;5077019;28;20225;-76
2023/05/11 07:19:21;;;;;;;2.63;1.50;;;;;;;15.81;55.03;100672.53;5082795;28;20202;-75
2023/05/11 07:21:48;;;;;;;3.20;1.80;;;;;;;16.40;55.07;100700.59;5077848;28;20199;-78
2023/05/11 07:24:15;;;;;;;3.65;1.83;;;;;;;16.62;54.38;100691.94;5073065;28;20199;-76
2023/05/11 07:26:42;;;;;;;3.10;1.63;;;;;;;16.88;53.41;100700.63;5086860;28;20205;-76
2023/05/11 07:29:10;;;;;;;1.75;1.40;;;;;;;16.95;53.49;100718.09;5093119;28;20252;-76
2023/05/11 07:31:36;;;;;;;2.63;1.65;;;;;;;16.85;51.40;100708.50;5093162;28;20618;-76
2023/05/11 07:34:03;;;;;;;3.67;1.67;;;;;;;16.88;50.53;100708.50;5093452;28;20676;-78
2023/05/11 07:36:30;;;;;;;4.45;1.85;;;;;;;16.58;50.47;100690.19;5093206;28;20225;-77
2023/05/11 07:38:58;;;;;;;2.25;1.27;;;;;;;16.58;51.06;100701.53;5088506;28;20705;-79
2023/05/11 07:41:26;;;;;;;2.83;1.60;;;;;;;16.68;49.72;100707.63;5073105;28;20202;-77
2023/05/11 07:43:52;;;;;;;2.05;1.30;;;;;;;16.82;49.08;100709.38;5073136;28;20199;-76
2023/05/11 07:46:21;;;;;;;2.95;1.65;;;;;;;17.05;48.49;100703.25;5072916;28;20210;-77
2023/05/11 07:48:47;;;;;;;2.35;1.40;;;;;;;17.08;49.20;100698.88;5073120;28;20328;-77
2023/05/11 07:51:14;;;;;;;2.10;1.30;;;;;;;16.74;50.08;100686.66;5073366;28;20199;-79
2023/05/11 07:53:41;;;;;;;3.80;1.80;;;;;;;17.01;50.57;100691.03;5073245;28;20202;-78
2023/05/11 07:56:09;;;;;;;2.65;1.33;;;;;;;17.30;50.18;100683.97;5072601;28;20229;-78
2023/05/11 07:58:36;;;;;;;2.97;1.85;;;;;;;17.19;48.63;100697.09;5072462;28;20195;-78
2023/05/11 08:01:03;;;;;;;2.65;1.50;;;;;;;17.30;48.23;100699.72;5072509;28;20199;-78
2023/05/11 08:03:31;;;;;;;2.17;1.33;;;;;;;17.38;46.99;100702.28;5072406;28;20196;-77
2023/05/11 08:05:58;;;;;;;2.45;1.33;;;;;;;17.16;47.14;100686.63;5072547;28;20191;-76
2023/05/11 08:08:25;;;;;;;4.22;1.92;;;;;;;17.29;48.53;100695.34;5072142;28;20206;-77
2023/05/11 08:10:51;;;;;;;2.00;1.38;;;;;;;17.23;50.08;100677.84;5071971;28;20199;-77
2023/05/11 08:13:18;;;;;;;4.07;1.67;;;;;;;17.17;49.46;100688.38;5020642;28;20684;-77
2023/05/11 08:15:45;;;;;;;2.95;1.48;;;;;;;17.06;50.53;100674.41;5072284;28;20225;-76
2023/05/11 08:18:12;;;;;;;3.33;1.50;;;;;;;17.08;49.64;100662.19;5072479;28;20206;-77
2023/05/11 08:20:41;;;;;;;3.08;1.30;;;;;;;17.46;46.50;100680.44;5072082;28;20214;-77
2023/05/11 08:23:08;;;;;;;4.00;1.60;;;;;;;17.76;46.96;100671.59;5071927;28;20298;-76
2023/05/11 08:25:34;;;;;;;4.03;1.58;;;;;;;17.66;45.26;100683.00;5071287;28;20207;-77
2023/05/11 08:28:01;;;;;;;3.65;1.58;;;;;;;17.85;45.24;100695.16;5072153;28;20195;-77
2023/05/11 08:30:28;;;;;;;4.20;1.58;;;;;;;17.89;42.79;100677.66;5072051;28;20217;-77
2023/05/11 08:32:55;;;;;;;2.63;1.30;;;;;;;18.21;43.69;100683.59;5072305;28;20579;-78
2023/05/11 08:35:23;;;;;;;4.32;1.73;;;;;;;18.47;44.03;100678.16;5072305;28;20198;-76
2023/05/11 08:37:51;;;;;;;3.45;1.58;;;;;;;18.84;43.99;100682.25;5071992;28;20274;-77
2023/05/11 08:40:20;;;;;;;2.85;1.58;;;;;;;18.81;44.55;100682.28;5072332;28;20234;-76
2023/05/11 08:42:48;;;;;;;1.30;1.02;;;;;;;18.54;45.65;100667.63;5072321;28;20214;-76
2023/05/11 08:45:16;;;;;;;3.25;1.65;;;;;;;18.89;44.27;100675.19;5072088;28;20282;-76
2023/05/11 08:47:43;;;;;;;2.45;1.42;;;;;;;18.52;43.57;100677.25;5071842;28;20241;-76
2023/05/11 08:50:10;;;;;;;3.97;1.67;;;;;;;18.18;43.24;100676.59;5071907;28;20203;-77
2023/05/11 08:52:37;;;;;;;1.58;1.17;;;;;;;18.12;42.28;100681.88;5071741;28;20739;-76
2023/05/11 08:55:07;;;;;;;3.20;1.50;;;;;;;18.57;43.15;100677.22;5071896;28;20252;-77
2023/05/11 08:57:34;;;;;;;5.13;1.83;;;;;;;18.39;42.35;100669.44;5071711;28;20226;-75
2023/05/11 09:00:03;;;;;;;4.18;2.10;;;;;;;18.20;42.27;100582.06;5057126;28;20237;-74
2023/05/11 09:02:31;;;;;;;3.50;1.65;;;;;;;18.73;42.13;100668.31;5052440;28;20576;-76
2023/05/11 09:05:02;;;;;;;2.38;1.33;;;;;;;18.87;42.42;100661.19;5019858;28;20282;-76
2023/05/11 09:07:31;;;;;;;4.28;1.83;;;;;;;18.58;44.12;100658.84;5063590;28;20754;-75
2023/05/11 09:09:57;;;;;;;1.55;1.10;;;;;;;18.64;43.59;100673.66;5052095;28;20211;-75
2023/05/11 09:12:27;;;;;;;3.28;1.50;;;;;;;19.04;43.38;100661.91;5064021;28;20222;-75
2023/05/11 09:14:54;;;;;;;2.50;1.35;;;;;;;18.97;43.00;100649.72;5064402;28;20199;-75
2023/05/11 09:17:24;;;;;;;2.85;1.40;;;;;;;18.98;43.46;100667.22;5070766;28;20234;-76
2023/05/11 09:20:03;;;;;;;4.43;1.70;;;;;;;19.02;42.16;100654.91;4971876;28;20289;-74
2023/05/11 09:22:33;;;;;;;3.78;2.13;;;;;;;19.14;43.09;100655.66;5017821;28;20262;-75
2023/05/11 09:25:00;;;;;;;3.70;1.60;;;;;;;18.90;42.93;100658.56;5050682;28;20682;-75
2023/05/11 09:27:28;;;;;;;4.25;1.70;;;;;;;18.68;42.36;100651.75;5064608;28;20207;-75
2023/05/11 09:29:55;;;;;;;2.47;1.30;;;;;;;18.90;42.29;100655.06;5060240;28;20297;-75
2023/05/11 09:32:22;;;;;;;2.97;1.45;;;;;;;19.27;42.38;100654.63;5068429;28;20589;-77
2023/05/11 09:34:49;;;;;;;4.25;1.67;;;;;;;18.98;41.59;100646.19;5051439;28;20200;-76
2023/05/11 09:37:17;;;;;;;3.88;1.63;;;;;;;19.05;42.16;100658.38;5050741;28;20253;-77
2023/05/11 09:40:12;;;;;;;3.88;1.65;;;;;;;19.12;42.90;100646.91;5057064;28;20233;-76
2023/05/11 09:42:42;;;;;;;3.28;1.55;;;;;;;19.03;43.56;100646.16;5056313;28;20684;-78
2023/05/11 09:45:10;;;;;;;4.15;1.77;;;;;;;19.16;42.92;100647.75;5071166;28;20190;-80
2023/05/11 09:47:39;;;;;;;3.85;1.65;;;;;;;19.11;42.05;100623.28;5070714;28;20202;-75
2023/05/11 09:50:16;;;;;;;2.70;1.40;;;;;;;19.30;41.52;100646.72;5032427;28;20203;-76
2023/05/11 09:52:50;;;;;;;3.28;1.50;;;;;;;19.07;42.43;100632.97;5064502;28;20198;-76
2023/05/11 09:55:17;;;;;;;2.90;1.42;;;;;;;19.14;43.53;100628.50;5050375;28;20206;-82
2023/05/11 09:57:53;;;;;;;5.63;2.88;;;;;;;19.37;42.55;100633.50;5064269;28;20716;-76
2023/05/11 10:00:21;;;;;;;3.90;1.75;;;;;;;19.45;41.82;100640.44;5058065;28;20198;-77
2023/05/11 10:03:00;;;;;;;2.70;1.33;;;;;;;19.69;41.46;100631.38;5070560;28;20210;-75
2023/05/11 10:05:27;;;;;;;1.88;1.10;;;;;;;19.33;41.44;100631.81;5072708;28;20203;-79
2023/05/11 10:07:58;;;;;;;2.20;1.30;;;;;;;19.64;42.25;100620.03;5061873;28;20205;-86
2023/05/11 10:10:27;;;;;;;3.40;1.85;;;;;;;19.58;40.85;100628.00;5064698;28;20194;-88
2023/05/11 10:12:55;;;;;;;3.00;1.40;;;;;;;19.86;41.26;100626.75;5068119;28;20321;-84
2023/05/11 10:15:26;;;;;;;4.00;1.73;;;;;;;19.42;42.20;100613.28;5067803;28;20191;-83
2023/05/11 10:17:54;;;;;;;2.90;1.30;;;;;;;19.65;41.73;100613.88;5051815;28;20267;-85
2023/05/11 10:20:22;;;;;;;2.80;1.40;;;;;;;19.64;41.44;100623.53;5066834;28;20756;-84
2023/05/11 10:22:52;;;;;;;4.13;1.60;;;;;;;19.59;41.23;100532.38;5061948;28;20561;-85
2023/05/11 10:25:20;;;;;;;2.55;1.48;;;;;;;19.56;41.51;100582.41;5068480;28;20199;-84
2023/05/11 10:27:47;;;;;;;2.83;1.50;;;;;;;19.68;42.40;100598.06;5070055;28;20688;-85
2023/05/11 10:30:16;;;;;;;2.67;1.30;;;;;;;19.61;41.97;100576.22;5071028;28;20226;-86
2023/05/11 10:32:44;;;;;;;2.75;1.40;;;;;;;20.15;41.24;100610.53;5066649;28;20203;-84
2023/05/11 10:35:11;;;;;;;2.95;1.50;;;;;;;20.48;41.17;100617.00;5060621;28;20195;-84
2023/05/11 10:37:38;;;;;;;1.90;1.17;;;;;;;20.59;41.80;100609.81;5054303;28;20628;-83
2023/05/11 10:40:07;;;;;;;2.80;1.50;;;;;;;20.68;41.36;100610.53;5050616;28;20246;-85
2023/05/11 10:42:55;;;;;;;3.20;1.50;;;;;;;20.92;40.86;100614.47;5052025;28;20200;-82
2023/05/11 10:45:26;;;;;;;2.88;1.50;;;;;;;20.62;40.31;100588.66;5054327;28;20203;-85
2023/05/11 10:48:24;;;;;;;3.47;1.45;;;;;;;20.74;40.11;100604.25;5019127;28;20563;-83
2023/05/11 10:51:10;;;;;;;3.03;1.50;;;;;;;20.74;40.48;100604.25;5024816;28;20591;-85
2023/05/11 10:53:50;;;;;;;2.83;1.35;;;;;;;20.58;40.65;100589.63;5054172;28;20208;-85
2023/05/11 10:56:31;;;;;;;4.05;1.70;;;;;;;20.58;40.02;100608.09;5054201;28;20710;-86
2023/05/11 10:59:14;;;;;;;2.58;1.33;;;;;;;20.73;42.98;100603.38;5054734;28;20204;-83
2023/05/11 11:01:44;;;;;;;2.70;1.35;;;;;;;20.32;44.62;100586.56;5055161;28;20593;-84
2023/05/11 11:04:12;;;;;;;2.47;1.33;;;;;;;20.18;43.39;100608.72;5055273;28;20234;-83
2023/05/11 11:06:41;;;;;;;4.07;2.28;;;;;;;20.49;42.68;100608.22;5060877;28;20675;-82
2023/05/11 11:09:11;;;;;;;3.70;1.67;;;;;;;20.80;44.39;100605.94;5059246;28;20199;-83
2023/05/11 11:11:41;;;;;;;1.48;1.30;;;;;;;20.42;42.62;100590.78;5058109;28;20635;-81
2023/05/11 11:14:10;;;;;;;1.90;1.38;;;;;;;20.44;44.58;100589.00;5059906;28;20199;-82
2023/05/11 11:16:37;;;;;;;2.13;1.58;;;;;;;20.58;43.69;100600.19;5060809;28;20228;-86
2023/05/11 11:19:37;;;;;;;2.05;1.38;;;;;;;20.59;45.23;100599.25;5055881;28;20224;-74
2023/05/11 11:22:04;;;;;;;2.75;1.50;;;;;;;20.13;44.87;100589.47;5053262;28;20245;-73
2023/05/11 11:24:45;;;;;;;2.90;1.55;;;;;;;20.08;45.23;100580.75;5018136;28;20696;-77
2023/05/11 11:27:12;;;;;;;2.00;1.20;;;;;;;20.49;44.19;100593.28;5053523;28;20199;-77
2023/05/11 11:29:40;;;;;;;2.70;1.40;;;;;;;20.30;45.03;100591.84;5053690;28;20202;-77
2023/05/11 11:32:27;;;;;;;3.10;1.50;;;;;;;20.27;43.99;100586.59;5053838;28;20203;-77